Time;durP1;ratioP1;P1;durP2;ratioP2;P2;SDS_P1;SDS_P2;PMS_P1;PMS_P2;Temp;Humidity;BMP_temperature;BMP_pressure;BME280_temperature;BME280_humidity;BME280_pressure;Samples;Min_cycle;Max_cycle;Signal;HPM_P1;HPM_P2
2021/12/09 00:00:32;;;;;;;;;24.50;22.50;;;;;16.05;47.58;97539.84;4851015;28;104446;-63
2021/12/09 00:03:05;;;;;;;;;21.75;19.25;;;;;16.03;47.15;97542.00;4858004;28;102642;-64
2021/12/09 00:05:33;;;;;;;;;20.25;19.25;;;;;16.03;46.99;97542.00;4861050;28;102741;-64
2021/12/09 00:08:00;;;;;;;;;22.00;20.75;;;;;16.01;47.25;97544.19;4851646;28;102846;-63
2021/12/09 00:10:27;;;;;;;;;20.50;18.25;;;;;16.01;47.01;97538.75;4842577;28;104117;-63
2021/12/09 00:12:54;;;;;;;;;20.25;18.50;;;;;16.02;46.86;97545.84;4856441;28;103959;-64
2021/12/09 00:15:24;;;;;;;;;21.00;17.75;;;;;16.00;46.89;97542.53;4845168;28;102517;-64
2021/12/09 00:17:51;;;;;;;;;20.50;19.00;;;;;16.00;46.69;97549.88;4854255;28;102285;-62
2021/12/09 00:20:18;;;;;;;;;21.75;19.50;;;;;15.99;46.76;97540.88;4850198;28;104304;-63
2021/12/09 00:22:46;;;;;;;;;22.50;20.75;;;;;15.99;47.18;97543.63;4839460;28;102885;-62
2021/12/09 00:25:15;;;;;;;;;22.00;19.25;;;;;15.98;46.65;97543.91;4835444;28;107758;-63
2021/12/09 00:27:43;;;;;;;;;20.75;18.50;;;;;15.98;46.64;97544.72;4855102;28;102769;-62
2021/12/09 00:30:13;;;;;;;;;18.50;18.25;;;;;15.97;47.11;97534.06;4851877;28;108920;-62
2021/12/09 00:32:43;;;;;;;;;25.75;22.25;;;;;15.96;46.54;97532.41;4849723;28;104137;-63
2021/12/09 00:35:13;;;;;;;;;19.50;17.25;;;;;15.94;46.72;97538.13;4853420;28;103258;-63
2021/12/09 00:37:52;;;;;;;;;18.50;17.50;;;;;15.94;46.57;97540.84;4838853;28;102874;-63
2021/12/09 00:40:19;;;;;;;;;20.25;18.75;;;;;15.93;46.94;97536.50;4849315;28;108887;-63
2021/12/09 00:42:46;;;;;;;;;20.00;17.25;;;;;15.92;47.06;97532.13;4856702;28;103971;-64
2021/12/09 00:45:14;;;;;;;;;18.50;17.50;;;;;15.91;46.44;97530.47;4860887;28;103766;-64
2021/12/09 00:47:41;;;;;;;;;20.00;19.25;;;;;15.90;46.93;97525.28;4856751;28;103301;-64
2021/12/09 00:50:08;;;;;;;;;19.25;16.75;;;;;15.89;46.79;97535.38;4844652;28;104151;-64
2021/12/09 00:52:36;;;;;;;;;22.00;17.75;;;;;15.89;46.47;97524.47;4851128;28;103038;-64
2021/12/09 00:55:04;;;;;;;;;22.00;18.75;;;;;15.87;46.62;97526.63;4855065;28;102274;-64
2021/12/09 00:57:31;;;;;;;;;16.75;15.00;;;;;15.85;47.10;97515.16;4856984;28;103180;-64
2021/12/09 00:59:59;;;;;;;;;21.50;19.25;;;;;15.85;46.39;97520.59;4856271;28;104099;-64
2021/12/09 01:02:26;;;;;;;;;16.50;16.50;;;;;15.83;46.75;97509.16;4824603;28;102488;-62
2021/12/09 01:04:53;;;;;;;;;18.50;17.25;;;;;15.82;47.12;97491.16;4843886;28;103654;-63
2021/12/09 01:07:20;;;;;;;;;22.25;19.75;;;;;15.80;46.77;97487.88;4839183;28;102738;-62
2021/12/09 01:09:47;;;;;;;;;19.50;18.00;;;;;15.80;46.75;97476.16;4847885;28;104190;-62
2021/12/09 01:12:14;;;;;;;;;18.50;17.50;;;;;15.79;46.80;97475.31;4839289;28;102282;-62
2021/12/09 01:14:41;;;;;;;;;20.75;17.75;;;;;15.80;46.49;97476.16;4853435;28;103697;-62
2021/12/09 01:17:09;;;;;;;;;19.75;18.00;;;;;15.79;46.73;97478.06;4844863;28;104408;-62
2021/12/09 01:19:37;;;;;;;;;18.50;16.25;;;;;15.78;46.26;97487.31;4839905;28;104047;-62
2021/12/09 01:22:04;;;;;;;;;20.75;19.00;;;;;15.77;46.67;97482.09;4835151;28;102583;-62
2021/12/09 01:24:31;;;;;;;;;18.50;17.25;;;;;15.77;46.71;97482.09;4833647;28;104737;-62
2021/12/09 01:26:59;;;;;;;;;22.00;16.00;;;;;15.76;46.34;97481.28;4846570;28;102659;-63
2021/12/09 01:29:39;;;;;;;;;13.75;12.00;;;;;15.73;46.48;97476.38;4842459;28;104386;-62
2021/12/09 01:32:08;;;;;;;;;15.25;14.75;;;;;15.73;46.56;97470.09;4834247;28;102285;-62
2021/12/09 01:34:35;;;;;;;;;16.00;14.50;;;;;15.72;46.32;97460.25;4852933;28;102500;-63
2021/12/09 01:37:04;;;;;;;;;18.25;15.00;;;;;15.70;46.33;97463.28;4841278;28;102457;-63
2021/12/09 01:39:31;;;;;;;;;21.50;16.75;;;;;15.70;46.82;97468.72;4841232;28;104115;-64
2021/12/09 01:41:58;;;;;;;;;18.25;16.00;;;;;15.69;46.34;97463.53;4844906;28;103686;-63
2021/12/09 01:44:26;;;;;;;;;14.75;14.00;;;;;15.68;46.36;97470.88;4850245;28;103848;-63
2021/12/09 01:46:56;;;;;;;;;15.75;13.75;;;;;15.67;46.14;97471.94;4831313;28;103260;-63
2021/12/09 01:49:23;;;;;;;;;19.50;18.25;;;;;15.66;46.49;97464.06;4853568;28;104351;-62
2021/12/09 01:51:50;;;;;;;;;19.00;15.25;;;;;15.63;46.17;97471.66;4859487;28;104248;-63
2021/12/09 01:54:17;;;;;;;;;19.50;16.00;;;;;15.61;46.67;97462.09;4847010;28;102538;-63
2021/12/09 01:56:44;;;;;;;;;17.75;16.75;;;;;15.61;46.59;97462.94;4830617;28;102541;-63
2021/12/09 01:59:11;;;;;;;;;18.50;16.50;;;;;15.60;46.42;97466.72;4833652;28;104075;-63
2021/12/09 02:01:38;;;;;;;;;18.25;17.50;;;;;15.60;46.32;97469.47;4826806;28;104589;-63
2021/12/09 02:04:07;;;;;;;;;19.25;16.50;;;;;15.59;46.54;97461.53;4825065;28;104203;-64
2021/12/09 02:06:35;;;;;;;;;18.25;16.00;;;;;15.58;46.24;97457.97;4813601;28;102521;-63
2021/12/09 02:09:02;;;;;;;;;15.25;14.25;;;;;15.58;46.35;97462.59;4815950;28;107612;-63
2021/12/09 02:11:29;;;;;;;;;16.00;13.00;;;;;15.57;46.17;97455.53;4844557;28;105618;-62
2021/12/09 02:13:57;;;;;;;;;18.50;16.25;;;;;15.58;46.35;97465.34;4852898;28;102538;-63
2021/12/09 02:16:25;;;;;;;;;18.25;15.75;;;;;15.56;46.08;97462.88;4836251;28;103511;-63
2021/12/09 02:18:54;;;;;;;;;18.25;14.50;;;;;15.56;46.17;97459.34;4846295;28;104033;-62
2021/12/09 02:21:26;;;;;;;;;15.00;13.75;;;;;15.55;46.16;97460.41;4842093;28;102398;-63
2021/12/09 02:24:02;;;;;;;;;17.75;16.00;;;;;15.55;46.11;97468.59;4836889;28;102966;-62
2021/12/09 02:26:31;;;;;;;;;18.00;15.00;;;;;15.53;45.93;97470.78;4805805;28;102146;-63
2021/12/09 02:28:59;;;;;;;;;16.75;15.00;;;;;15.51;46.13;97457.41;4844806;28;104168;-62
2021/12/09 02:31:27;;;;;;;;;16.00;15.25;;;;;15.48;46.29;97463.34;4841013;28;102516;-62
2021/12/09 02:33:55;;;;;;;;;15.50;14.75;;;;;15.51;46.13;97464.75;4838611;28;103044;-63
2021/12/09 02:36:22;;;;;;;;;15.75;14.50;;;;;15.49;46.19;97459.50;4848407;28;102752;-63
2021/12/09 02:38:50;;;;;;;;;13.50;11.25;;;;;15.49;45.98;97464.16;4846529;28;104172;-63
2021/12/09 02:41:23;;;;;;;;;18.50;15.75;;;;;15.48;46.17;97468.78;4859508;28;106924;-64
2021/12/09 02:43:54;;;;;;;;;17.00;16.00;;;;;15.47;46.31;97463.59;4847531;28;102834;-63
2021/12/09 02:46:22;;;;;;;;;14.00;13.00;;;;;15.45;46.23;97469.28;4839594;28;102881;-63
2021/12/09 02:48:50;;;;;;;;;23.25;16.00;;;;;15.44;46.22;97464.13;4843063;28;104276;-64
2021/12/09 02:51:17;;;;;;;;;21.75;16.75;;;;;15.43;45.92;97466.03;4851366;28;102523;-63
2021/12/09 02:53:44;;;;;;;;;17.50;16.25;;;;;15.42;46.08;97461.66;4848885;28;102528;-63
2021/12/09 02:56:11;;;;;;;;;15.50;14.25;;;;;15.41;46.00;97457.28;4852598;28;102380;-63
2021/12/09 02:58:38;;;;;;;;;16.75;13.50;;;;;15.40;45.91;97455.63;4849550;28;103955;-64
2021/12/09 03:01:15;;;;;;;;;12.25;11.25;;;;;15.39;46.42;97458.63;4850114;28;102469;-64
2021/12/09 03:03:51;;;;;;;;;16.00;16.00;;;;;15.38;46.08;97452.34;4846008;28;102518;-63
2021/12/09 03:06:22;;;;;;;;;18.25;15.00;;;;;15.39;45.98;97464.06;4856118;28;102576;-63
2021/12/09 03:08:49;;;;;;;;;16.75;15.00;;;;;15.38;45.92;97457.81;4845340;28;108966;-64
2021/12/09 03:11:19;;;;;;;;;16.50;15.00;;;;;15.37;45.85;97455.34;4850099;28;102555;-63
2021/12/09 03:13:50;;;;;;;;;16.00;15.50;;;;;15.35;46.24;97458.34;4851184;28;102519;-63
2021/12/09 03:16:22;;;;;;;;;17.00;14.50;;;;;15.36;45.67;97461.84;4855359;28;103567;-63
2021/12/09 03:18:55;;;;;;;;;15.00;14.75;;;;;15.34;46.12;97461.31;4847123;28;108930;-63
2021/12/09 03:21:30;;;;;;;;;14.50;12.25;;;;;15.33;46.09;97460.47;4844717;28;102800;-63
2021/12/09 03:23:58;;;;;;;;;16.00;14.25;;;;;15.32;45.89;97461.56;4850039;28;102708;-63
2021/12/09 03:26:29;;;;;;;;;15.25;14.50;;;;;15.32;45.99;97463.44;4829865;28;102170;-63
2021/12/09 03:29:02;;;;;;;;;18.50;17.50;;;;;15.30;46.37;97455.56;4862034;28;104249;-63
2021/12/09 03:31:29;;;;;;;;;13.75;13.25;;;;;15.30;45.91;97460.19;4849884;28;102861;-63
2021/12/09 03:33:57;;;;;;;;;13.75;11.75;;;;;15.29;45.94;97463.97;4847061;28;102642;-63
2021/12/09 03:36:28;;;;;;;;;15.50;15.00;;;;;15.28;46.07;97452.25;4855316;28;102954;-63
2021/12/09 03:38:59;;;;;;;;;16.00;13.25;;;;;15.27;45.95;97460.69;4860117;28;111370;-64
2021/12/09 03:41:26;;;;;;;;;16.00;13.50;;;;;15.27;46.03;97466.13;4843999;28;102898;-63
2021/12/09 03:43:53;;;;;;;;;14.00;12.50;;;;;15.27;45.90;97460.69;4852447;28;102651;-64
2021/12/09 03:46:20;;;;;;;;;16.75;14.00;;;;;15.25;45.86;97455.50;4853065;28;102869;-63
2021/12/09 03:48:48;;;;;;;;;14.00;12.50;;;;;15.25;45.67;97468.31;4850406;28;104234;-63
2021/12/09 03:51:15;;;;;;;;;14.75;12.00;;;;;15.24;45.83;97461.22;4851542;28;102465;-63
2021/12/09 03:53:42;;;;;;;;;16.00;14.50;;;;;15.23;45.64;97470.44;4846833;28;102971;-63
2021/12/09 03:56:09;;;;;;;;;14.25;11.25;;;;;15.21;45.90;97464.47;4841410;28;102334;-63
2021/12/09 03:58:36;;;;;;;;;15.50;13.25;;;;;15.22;45.90;97474.28;4854156;28;104010;-64
2021/12/09 04:01:04;;;;;;;;;14.00;11.25;;;;;15.19;45.72;97481.88;4852390;28;103431;-63
2021/12/09 04:03:31;;;;;;;;;17.00;14.00;;;;;15.19;45.55;97481.88;4836555;28;103725;-63
2021/12/09 04:05:58;;;;;;;;;14.50;12.50;;;;;15.17;45.85;97478.56;4849421;28;102547;-63
2021/12/09 04:08:25;;;;;;;;;15.25;14.75;;;;;15.19;45.78;97475.59;4852984;28;103905;-63
2021/12/09 04:10:52;;;;;;;;;14.25;13.25;;;;;15.18;45.72;97466.59;4846923;28;103150;-63
2021/12/09 04:13:19;;;;;;;;;14.25;14.00;;;;;15.17;45.60;97456.00;4864276;28;102663;-63
2021/12/09 04:15:46;;;;;;;;;14.25;12.50;;;;;15.15;46.08;97448.06;4857186;28;103004;-62
2021/12/09 04:18:13;;;;;;;;;15.25;13.75;;;;;15.16;45.50;97462.50;4838807;28;104137;-62
2021/12/09 04:20:40;;;;;;;;;15.00;13.50;;;;;15.16;45.73;97476.94;4852834;28;102843;-62
2021/12/09 04:23:08;;;;;;;;;14.00;13.00;;;;;15.14;45.65;97457.31;4847611;28;102482;-62
2021/12/09 04:25:35;;;;;;;;;14.50;13.50;;;;;15.15;45.62;97479.91;4840906;28;102888;-62
2021/12/09 04:28:02;;;;;;;;;16.50;10.00;;;;;15.13;45.83;97476.63;4845066;28;104043;-62
2021/12/09 04:30:29;;;;;;;;;12.75;9.00;;;;;15.12;45.88;97475.81;4851921;28;102297;-62
2021/12/09 04:32:56;;;;;;;;;12.25;10.75;;;;;15.12;45.72;97464.94;4843834;28;102626;-62
2021/12/09 04:35:24;;;;;;;;;13.75;11.50;;;;;15.12;45.95;97470.38;4854736;28;102705;-62
2021/12/09 04:37:51;;;;;;;;;14.75;13.75;;;;;15.11;45.65;97468.72;4853948;28;104996;-62
2021/12/09 04:40:20;;;;;;;;;15.75;13.75;;;;;15.10;45.82;97467.06;4848130;28;106062;-62
2021/12/09 04:42:47;;;;;;;;;16.00;13.75;;;;;15.11;45.51;97468.72;4844775;28;103257;-62
2021/12/09 04:45:14;;;;;;;;;12.75;10.75;;;;;15.10;45.71;97482.59;4846275;28;103386;-62
2021/12/09 04:47:41;;;;;;;;;12.75;9.00;;;;;15.10;45.35;97471.69;4848068;28;104126;-62
2021/12/09 04:50:09;;;;;;;;;11.50;11.50;;;;;15.08;45.66;97474.66;4851517;28;103590;-63
2021/12/09 04:52:36;;;;;;;;;13.50;11.25;;;;;15.08;45.97;97468.44;4838233;28;102791;-62
2021/12/09 04:55:05;;;;;;;;;14.75;13.00;;;;;15.07;45.36;97455.88;4849905;28;102672;-62
2021/12/09 04:57:32;;;;;;;;;17.75;12.50;;;;;15.06;45.56;97457.78;4839804;28;104092;-62
2021/12/09 05:00:00;;;;;;;;;12.00;10.00;;;;;15.06;45.67;97449.63;4857163;28;103282;-62
2021/12/09 05:02:36;;;;;;;;;15.25;8.50;;;;;15.06;45.96;97452.34;4843746;28;111824;-63
2021/12/09 05:05:04;;;;;;;;;14.00;12.50;;;;;15.06;45.81;97460.50;4858438;28;102993;-63
2021/12/09 05:07:31;;;;;;;;;14.50;12.00;;;;;15.06;45.88;97468.66;4843624;28;104773;-63
2021/12/09 05:09:58;;;;;;;;;14.25;10.75;;;;;15.02;45.69;97470.25;4842649;28;103523;-63
2021/12/09 05:12:25;;;;;;;;;16.25;13.25;;;;;15.02;45.89;97470.25;4842339;28;107417;-62
2021/12/09 05:14:52;;;;;;;;;10.00;9.75;;;;;15.02;45.93;97459.38;4841800;28;104324;-62
2021/12/09 05:17:19;;;;;;;;;16.50;14.75;;;;;15.03;46.36;97443.88;4852010;28;104374;-63
2021/12/09 05:19:46;;;;;;;;;15.75;14.00;;;;;15.06;46.64;97444.16;4856569;28;102657;-62
2021/12/09 05:22:13;;;;;;;;;18.50;15.00;;;;;15.08;47.17;97443.94;4855110;28;102580;-63
2021/12/09 05:24:40;;;;;;;;;17.50;14.75;;;;;15.09;46.93;97435.47;4859779;28;102784;-62
2021/12/09 05:27:08;;;;;;;;;19.75;17.75;;;;;15.11;46.87;97452.38;4851804;28;104085;-62
2021/12/09 05:29:40;;;;;;;;;17.75;15.50;;;;;15.14;47.38;97454.59;4855159;28;102828;-62
2021/12/09 05:32:08;;;;;;;;;17.25;13.00;;;;;15.18;47.63;97446.72;4851428;28;102916;-62
2021/12/09 05:34:49;;;;;;;;;15.50;13.50;;;;;15.20;47.66;97450.00;4843665;28;103050;-63
2021/12/09 05:37:23;;;;;;;;;16.25;15.50;;;;;15.21;47.37;97453.56;4853743;28;104291;-63
2021/12/09 05:39:51;;;;;;;;;17.00;15.00;;;;;15.20;47.05;97439.13;4847320;28;102295;-62
2021/12/09 05:42:21;;;;;;;;;20.25;18.75;;;;;15.21;46.92;97435.31;4847941;28;102351;-62
2021/12/09 05:44:51;;;;;;;;;19.50;17.50;;;;;15.20;47.31;97428.22;4862803;28;102676;-63
2021/12/09 05:47:18;;;;;;;;;21.75;17.00;;;;;15.19;46.89;97437.47;4856179;28;108613;-63
2021/12/09 05:49:46;;;;;;;;;18.00;15.00;;;;;15.15;46.90;97437.19;4852295;28;103277;-62
2021/12/09 05:52:13;;;;;;;;;22.75;16.00;;;;;15.14;46.92;97445.59;4866436;28;102243;-62
2021/12/09 05:54:40;;;;;;;;;16.25;15.00;;;;;15.12;47.02;97458.66;4863886;28;103754;-62
2021/12/09 05:57:08;;;;;;;;;18.75;14.75;;;;;15.10;46.92;97458.91;4860612;28;105195;-62
2021/12/09 05:59:40;;;;;;;;;17.00;14.75;;;;;15.08;46.76;97446.66;4865816;28;102742;-62
2021/12/09 06:02:12;;;;;;;;;23.75;18.50;;;;;15.06;46.84;97444.16;4858618;28;104432;-62
2021/12/09 06:04:39;;;;;;;;;18.75;16.00;;;;;15.04;46.34;97462.66;4853817;28;102901;-63
2021/12/09 06:07:06;;;;;;;;;19.00;15.00;;;;;15.03;46.33;97466.47;4855450;28;104111;-62
2021/12/09 06:09:33;;;;;;;;;20.50;16.50;;;;;15.02;46.57;97481.16;4854879;28;103162;-62
2021/12/09 06:12:01;;;;;;;;;15.75;13.00;;;;;15.00;46.18;97483.31;4843576;28;102679;-62
2021/12/09 06:14:28;;;;;;;;;17.50;16.25;;;;;14.98;46.17;97490.91;4861232;28;103491;-62
2021/12/09 06:16:57;;;;;;;;;14.50;14.50;;;;;14.99;45.93;97480.84;4862849;28;104328;-62
2021/12/09 06:19:24;;;;;;;;;14.75;14.75;;;;;14.96;46.45;97478.63;4846452;28;102387;-62
2021/12/09 06:21:51;;;;;;;;;17.75;13.25;;;;;14.95;46.17;97491.41;4861111;28;102278;-63
2021/12/09 06:24:21;;;;;;;;;19.25;15.75;;;;;14.94;46.62;97478.06;4873490;28;103597;-62
2021/12/09 06:26:48;;;;;;;;;16.25;14.00;;;;;14.91;46.65;97479.41;4852773;28;111121;-62
2021/12/09 06:29:15;;;;;;;;;16.25;14.00;;;;;14.90;46.54;97477.78;4859563;28;103577;-62
2021/12/09 06:31:42;;;;;;;;;17.00;15.25;;;;;14.88;45.94;97466.31;4862255;28;102518;-61
2021/12/09 06:34:11;;;;;;;;;16.75;13.25;;;;;14.87;46.29;97466.56;4857989;28;102502;-62
2021/12/09 06:36:42;;;;;;;;;17.50;15.00;;;;;14.86;46.34;97495.66;4864927;28;104547;-62
2021/12/09 06:39:09;;;;;;;;;20.25;17.75;;;;;14.83;46.49;97500.81;4865324;28;102196;-62
2021/12/09 06:41:36;;;;;;;;;14.25;12.25;;;;;14.81;46.62;97476.59;4856868;28;102448;-62
2021/12/09 06:44:03;;;;;;;;;14.75;14.00;;;;;14.79;46.26;97461.56;4865848;28;102838;-62
2021/12/09 06:46:30;;;;;;;;;16.00;13.75;;;;;14.78;46.53;97449.03;4872583;28;104289;-62
2021/12/09 06:48:58;;;;;;;;;13.75;11.25;;;;;14.77;46.00;97455.59;4860718;28;102550;-62
2021/12/09 06:51:25;;;;;;;;;10.00;10.00;;;;;14.74;46.40;97460.44;4856102;28;103421;-62
2021/12/09 06:53:52;;;;;;;;;14.00;12.00;;;;;14.73;46.17;97471.56;4879641;28;102631;-63
2021/12/09 06:56:19;;;;;;;;;14.75;12.00;;;;;14.72;46.01;97478.13;4868879;28;109004;-62
2021/12/09 06:58:46;;;;;;;;;14.25;13.00;;;;;14.69;46.35;97470.44;4859462;28;102516;-62
2021/12/09 07:01:16;;;;;;;;;1.50;0.00;;;;;14.68;45.69;97477.78;4863078;28;102830;-62
2021/12/09 07:03:43;;;;;;;;;13.00;11.25;;;;;14.67;46.28;97459.00;4868438;28;102833;-63
2021/12/09 07:06:12;;;;;;;;;16.00;12.75;;;;;14.65;46.03;97461.16;4860841;28;103791;-63
2021/12/09 07:08:45;;;;;;;;;16.75;12.75;;;;;14.64;46.13;97471.19;4871037;28;103386;-62
2021/12/09 07:11:13;;;;;;;;;15.25;13.50;;;;;14.63;45.80;97494.03;4862353;28;102899;-63
2021/12/09 07:13:44;;;;;;;;;17.75;13.50;;;;;14.63;46.46;97493.25;4863261;28;103549;-62
2021/12/09 07:16:11;;;;;;;;;12.75;9.00;;;;;14.62;46.02;97486.16;4867121;28;104072;-62
2021/12/09 07:18:38;;;;;;;;;12.75;12.50;;;;;14.61;46.30;97473.63;4872713;28;102468;-62
2021/12/09 07:21:07;;;;;;;;;16.75;12.00;;;;;14.60;45.78;97491.84;4866837;28;102477;-62
2021/12/09 07:23:35;;;;;;;;;13.50;12.25;;;;;14.58;46.02;97490.47;4871240;28;102621;-62
2021/12/09 07:26:05;;;;;;;;;15.75;12.00;;;;;14.57;45.71;97496.97;4866044;28;104010;-62
2021/12/09 07:28:32;;;;;;;;;12.75;11.00;;;;;14.55;45.81;97496.38;4864719;28;102485;-62
2021/12/09 07:30:59;;;;;;;;;15.75;13.50;;;;;14.54;46.13;97483.88;4869977;28;102691;-62
2021/12/09 07:33:26;;;;;;;;;12.50;10.75;;;;;14.53;45.77;97487.66;4873496;28;102736;-63
2021/12/09 07:35:53;;;;;;;;;15.50;13.00;;;;;14.51;46.22;97496.06;4865484;28;104157;-62
2021/12/09 07:38:20;;;;;;;;;13.75;10.50;;;;;14.49;45.44;97517.28;4872994;28;102817;-62
2021/12/09 07:40:47;;;;;;;;;14.25;11.75;;;;;14.49;45.86;97530.06;4872402;28;102651;-62
2021/12/09 07:43:14;;;;;;;;;15.00;14.25;;;;;14.47;45.53;97513.97;4857938;28;102840;-62
2021/12/09 07:45:41;;;;;;;;;13.75;12.75;;;;;14.47;46.26;97505.00;4862890;28;104163;-62
2021/12/09 07:48:08;;;;;;;;;12.75;11.25;;;;;14.44;46.02;97495.44;4872284;28;102642;-61
2021/12/09 07:50:36;;;;;;;;;17.00;12.00;;;;;14.44;46.22;97497.34;4871508;28;102466;-62
2021/12/09 07:53:03;;;;;;;;;14.50;12.75;;;;;14.43;46.13;97480.19;4869234;28;106586;-62
2021/12/09 07:55:30;;;;;;;;;16.75;13.00;;;;;14.42;45.87;97485.88;4862391;28;104315;-62
2021/12/09 07:57:57;;;;;;;;;11.50;9.00;;;;;14.41;45.84;97495.13;4871362;28;102580;-61
2021/12/09 08:00:31;;;;;;;;;12.50;11.75;;;;;14.40;46.24;97526.13;4861551;28;102284;-61
2021/12/09 08:02:59;;;;;;;;;13.00;10.50;;;;;14.39;45.68;97529.91;4872549;28;102374;-62
2021/12/09 08:05:27;;;;;;;;;14.25;11.50;;;;;14.39;45.96;97529.91;4865019;28;104330;-61
2021/12/09 08:07:54;;;;;;;;;14.50;13.00;;;;;14.38;45.66;97528.25;4862226;28;102652;-62
2021/12/09 08:10:22;;;;;;;;;15.50;13.50;;;;;14.37;45.93;97537.47;4877082;28;102403;-62
2021/12/09 08:12:49;;;;;;;;;14.00;14.00;;;;;14.36;45.75;97541.31;4867608;28;103893;-62
2021/12/09 08:15:29;;;;;;;;;12.50;11.75;;;;;14.34;45.67;97533.34;4862121;28;109989;-62
2021/12/09 08:18:00;;;;;;;;;14.75;10.50;;;;;14.34;45.41;97537.97;4872683;28;102141;-62
2021/12/09 08:20:28;;;;;;;;;13.75;10.25;;;;;14.32;46.26;97536.31;4869137;28;102680;-62
2021/12/09 08:22:55;;;;;;;;;13.25;12.75;;;;;14.32;45.78;97530.88;4858971;28;103200;-62
2021/12/09 08:25:23;;;;;;;;;16.50;13.75;;;;;14.30;46.13;97530.31;4859701;28;104159;-62
2021/12/09 08:27:50;;;;;;;;;15.25;11.00;;;;;14.30;46.14;97519.44;4868642;28;102532;-62
2021/12/09 08:30:20;;;;;;;;;13.00;12.00;;;;;14.28;45.96;97505.25;4875551;28;102934;-61
2021/12/09 08:33:07;;;;;;;;;14.25;13.00;;;;;14.28;45.59;97501.72;4869013;28;103193;-62
2021/12/09 08:35:34;;;;;;;;;10.25;8.50;;;;;14.27;46.06;97506.31;4880764;28;103931;-62
2021/12/09 08:38:07;;;;;;;;;11.75;10.50;;;;;14.27;46.16;97511.75;4863983;28;102424;-62
2021/12/09 08:40:35;;;;;;;;;11.50;11.25;;;;;14.27;46.00;97519.91;4865734;28;102577;-62
2021/12/09 08:43:02;;;;;;;;;14.00;12.00;;;;;14.28;45.98;97518.84;4875766;28;102545;-62
2021/12/09 08:45:32;;;;;;;;;12.25;9.00;;;;;14.26;46.17;97520.19;4872523;28;103865;-62
2021/12/09 08:47:59;;;;;;;;;12.75;11.00;;;;;14.24;45.34;97517.72;4861822;28;102567;-62
2021/12/09 08:50:33;;;;;;;;;11.75;9.75;;;;;14.23;46.04;97521.50;4859486;28;102590;-62
2021/12/09 08:53:04;;;;;;;;;11.00;9.00;;;;;14.23;45.32;97518.78;4866124;28;102582;-62
2021/12/09 08:55:39;;;;;;;;;8.00;8.00;;;;;14.23;45.79;97532.38;4856648;28;105721;-61
2021/12/09 08:58:07;;;;;;;;;11.50;10.75;;;;;14.22;45.73;97519.88;4859495;28;102913;-62
2021/12/09 09:00:34;;;;;;;;;15.50;12.00;;;;;14.21;45.84;97529.09;4873445;28;103193;-61
2021/12/09 09:03:02;;;;;;;;;14.25;11.50;;;;;14.21;45.89;97523.66;4857306;28;103612;-61
2021/12/09 09:05:29;;;;;;;;;9.75;9.75;;;;;14.20;45.98;97521.19;4867838;28;104246;-61
2021/12/09 09:07:56;;;;;;;;;12.00;11.75;;;;;14.20;45.39;97510.31;4872966;28;102546;-62
2021/12/09 09:10:28;;;;;;;;;10.50;9.50;;;;;14.19;45.92;97512.19;4862058;28;102330;-61
2021/12/09 09:12:55;;;;;;;;;11.00;10.00;;;;;14.19;45.86;97504.03;4868711;28;103266;-62
2021/12/09 09:15:23;;;;;;;;;12.50;8.75;;;;;14.19;45.71;97506.75;4873047;28;104015;-62
2021/12/09 09:17:53;;;;;;;;;13.75;9.25;;;;;14.17;45.51;97489.91;4861569;28;102561;-62
2021/12/09 09:20:21;;;;;;;;;12.25;11.75;;;;;14.17;46.04;97484.47;4865438;28;102554;-62
2021/12/09 09:22:48;;;;;;;;;13.75;8.50;;;;;14.17;45.71;97483.63;4855956;28;103064;-62
2021/12/09 09:25:20;;;;;;;;;14.75;11.25;;;;;14.16;45.20;97485.53;4863478;28;104083;-62
2021/12/09 09:27:48;;;;;;;;;12.25;9.25;;;;;14.16;45.98;97487.41;4853939;28;103330;-62
2021/12/09 09:30:18;;;;;;;;;11.00;9.25;;;;;14.15;45.44;97488.50;4871047;28;102412;-62
2021/12/09 09:32:46;;;;;;;;;8.50;8.00;;;;;14.16;45.61;97481.97;4864121;28;102505;-62
2021/12/09 09:35:19;;;;;;;;;12.25;10.25;;;;;14.14;45.20;97479.50;4853127;28;104168;-62
2021/12/09 09:37:46;;;;;;;;;12.50;10.50;;;;;14.13;45.79;97486.03;4867380;28;102568;-61
2021/12/09 09:40:16;;;;;;;;;12.75;9.00;;;;;14.13;45.83;97471.63;4869864;28;103243;-62
2021/12/09 09:45:13;;;;;;;;;11.75;9.50;;;;;14.12;45.75;97478.13;4853145;28;104271;-62
2021/12/09 09:47:40;;;;;;;;;14.00;11.25;;;;;14.11;45.68;97480.00;4874409;28;102449;-62
2021/12/09 09:50:09;;;;;;;;;12.75;11.75;;;;;14.11;44.99;97480.00;4864668;28;102762;-62
2021/12/09 09:52:36;;;;;;;;;10.50;10.50;;;;;14.10;45.79;97467.50;4869283;28;102894;-62
2021/12/09 09:55:06;;;;;;;;;12.00;10.00;;;;;14.09;44.99;97465.88;4870096;28;103987;-61
2021/12/09 09:57:33;;;;;;;;;11.75;9.50;;;;;14.10;45.62;97467.50;4860471;28;102352;-61
2021/12/09 10:00:01;;;;;;;;;11.00;10.50;;;;;14.09;45.04;97473.19;4867607;28;102206;-62
2021/12/09 10:02:28;;;;;;;;;12.00;9.25;;;;;14.08;45.73;97464.22;4875532;28;102602;-62
2021/12/09 10:05:03;;;;;;;;;13.00;11.25;;;;;14.06;45.82;97458.19;4866846;28;104266;-62
2021/12/09 10:07:33;;;;;;;;;12.50;8.50;;;;;14.07;45.79;97461.75;4862561;28;102473;-62
2021/12/09 10:10:00;;;;;;;;;8.75;8.75;;;;;14.05;45.39;97470.13;4873396;28;102479;-62
2021/12/09 10:12:27;;;;;;;;;8.75;8.00;;;;;14.06;45.25;97471.78;4862539;28;102677;-62
2021/12/09 10:14:54;;;;;;;;;13.00;10.25;;;;;14.05;45.01;97463.91;4868553;28;104090;-61
2021/12/09 10:17:28;;;;;;;;;11.75;9.25;;;;;14.06;45.22;97473.69;4869216;28;102624;-62
2021/12/09 10:20:08;;;;;;;;;9.00;7.25;;;;;14.06;45.21;97470.97;4861907;28;103465;-61
2021/12/09 10:22:35;;;;;;;;;9.00;7.50;;;;;14.04;45.61;97454.09;4858561;28;102716;-61
2021/12/09 10:25:15;;;;;;;;;11.00;9.25;;;;;14.04;45.80;97454.09;4861506;28;104151;-62
2021/12/09 10:27:45;;;;;;;;;9.00;7.25;;;;;14.03;45.23;97445.13;4867246;28;102597;-62
2021/12/09 10:30:17;;;;;;;;;11.50;8.00;;;;;14.03;45.41;97447.84;4857119;28;102533;-62
2021/12/09 10:32:44;;;;;;;;;11.00;7.75;;;;;13.93;45.11;97430.56;4859960;28;102531;-62
2021/12/09 10:35:16;;;;;;;;;15.50;11.00;;;;;14.02;45.37;97443.47;4876076;28;104028;-61
2021/12/09 10:37:47;;;;;;;;;11.25;8.00;;;;;14.02;45.23;97427.16;4859257;28;102374;-61
2021/12/09 10:40:33;;;;;;;;;12.25;9.00;;;;;14.03;45.65;97436.13;4860785;28;102395;-61
2021/12/09 10:43:02;;;;;;;;;9.25;9.00;;;;;14.02;45.00;97435.31;4869137;28;102648;-62
2021/12/09 10:45:38;;;;;;;;;10.00;8.25;;;;;14.00;45.11;97426.59;4869174;28;104109;-62
2021/12/09 10:48:25;;;;;;;;;10.25;8.75;;;;;14.00;45.76;97420.34;4858240;28;111884;-61
2021/12/09 10:56:00;;;;;;;;;11.25;9.25;;;;;13.99;45.27;97411.38;4863004;28;104075;-61
2021/12/09 10:58:30;;;;;;;;;12.50;10.75;;;;;13.97;45.64;97410.78;4861765;28;102419;-61
2021/12/09 11:01:14;;;;;;;;;7.75;7.75;;;;;13.96;45.21;97416.50;4864910;28;102310;-61
2021/12/09 11:03:50;;;;;;;;;13.25;9.50;;;;;13.96;45.47;97411.84;4876003;28;102193;-61
2021/12/09 11:06:18;;;;;;;;;10.75;8.00;;;;;13.96;45.03;97406.41;4859781;28;104090;-60
2021/12/09 11:08:53;;;;;;;;;9.00;9.00;;;;;13.95;45.01;97384.94;4864571;28;102556;-62
2021/12/09 11:11:25;;;;;;;;;11.75;9.25;;;;;13.94;45.04;97395.00;4874926;28;102631;-61
2021/12/09 11:13:55;;;;;;;;;13.00;9.25;;;;;13.94;45.48;97391.44;4862789;28;102470;-61
2021/12/09 11:16:29;;;;;;;;;8.00;7.50;;;;;13.92;45.11;97388.97;4870010;28;108789;-61
2021/12/09 11:19:06;;;;;;;;;8.25;7.25;;;;;13.92;45.00;97377.28;4863005;28;103697;-61
2021/12/09 11:21:37;;;;;;;;;10.50;8.00;;;;;13.93;45.14;97379.75;4874248;28;102669;-61
2021/12/09 11:24:13;;;;;;;;;9.25;7.00;;;;;13.90;45.64;97385.69;4851506;28;102443;-62
2021/12/09 11:26:58;;;;;;;;;12.00;10.50;;;;;13.91;45.29;97371.03;4872704;28;104146;-61